Wednesday, November 22, 2017, 11:37 AM EST
Back to Local

KPQI, Presque Isle

Location: Presque Isle, ME, United States Lat: 46.683
Local Time: 11:37 AM EST (16:37 GMT) Lon: -68.05
Time Zone: US/Eastern Elev: 534 ft

Show me the last for .
Show Coded

Time T Td Feel RH Dir Speed Gust Alt SLP Vis Weather Sky Remarks
2017-11-22 10:56 39 35 34 85 Variable 7 - 29.92 30.06 10 CLR None
2017-11-22 09:56 38 35 31 89 150° 9 - 29.92 30.05 10 CLR None
2017-11-22 08:56 34 34 29 100 160° 6 - 29.94 30.07 10 CLR None
2017-11-22 07:56 27 26 - 96 - Calm - 29.95 30.08 10 OVC100 None
2017-11-22 06:56 24 22 - 91 - Calm - 29.96 30.09 10 FEW100 6-hr Min Temp (7am): 23.0°F
6-hr Max Temp (7am): 26.1°F
2017-11-22 05:56 25 24 - 96 - Calm - 29.94 30.08 9 CLR None
2017-11-22 04:56 23 22 - 95 - Calm - 29.93 30.07 10 CLR None
2017-11-22 03:56 26 25 - 95 - Calm - 29.93 30.06 10 CLR None
2017-11-22 02:56 26 25 - 95 - Calm - 29.92 30.06 10 CLR None
2017-11-22 01:56 25 24 - 96 - Calm - 29.92 30.06 10 CLR None
2017-11-22 00:56 26 25 - 95 - Calm - 29.91 30.05 10 CLR 6-hr Min Temp (1am): 25.0°F
6-hr Max Temp (1am): 32.0°F
2017-11-21 23:56 27 26 - 96 - Calm - 29.91 30.05 10 CLR 24-hr Min Temp (12am): 10.0°F
24-hr Max Temp (12am): 33.1°F
2017-11-21 22:56 28 26 - 92 - Calm - 29.91 30.04 10 CLR None
2017-11-21 21:56 30 27 25 88 170° 5 - 29.91 30.03 10 CLR None
2017-11-21 20:56 30 27 24 88 160° 6 - 29.90 30.03 10 CLR None
2017-11-21 19:56 31 27 23 85 150° 8 - 29.90 30.03 10 CLR None
2017-11-21 18:56 31 26 24 81 140° 7 - 29.89 30.03 10 CLR 6-hr Min Temp (7pm): 28.0°F
6-hr Max Temp (7pm): 33.1°F
2017-11-21 17:56 31 24 23 75 140° 8 - 29.89 30.02 10 CLR None
2017-11-21 16:56 32 23 24 68 150° 9 - 29.89 30.03 10 CLR None
2017-11-21 15:56 33 21 25 60 150° 10 - 29.88 30.02 10 CLR None
2017-11-21 14:56 33 19 25 55 150° 9 - 29.87 30.01 10 CLR None
2017-11-21 13:56 31 18 22 58 150° 10 - 29.89 30.02 10 CLR None
2017-11-21 12:56 29 15 20 55 150° 10 - 29.91 30.04 10 CLR 6-hr Precip Total (1pm): 0.00"
6-hr Min Temp (1pm): 12.0°F
6-hr Max Temp (1pm): 28.9°F
2017-11-21 11:56 26 13 16 56 150° 10 - 29.94 30.07 10 CLR None

Support USWX by starting your Amazon purchase here.